Time;durP1;ratioP1;P1;durP2;ratioP2;P2;SDS_P1;SDS_P2;PMS_P1;PMS_P2;Temp;Humidity;BMP_temperature;BMP_pressure;BME280_temperature;BME280_humidity;BME280_pressure;Samples;Min_cycle;Max_cycle;Signal;HPM_P1;HPM_P2
2022/04/26 03:36:40;;;;;;;10.18;4.85;;;12.30;99.90;;;;;;4994100;28;19912;-63
2022/04/26 03:39:07;;;;;;;8.15;4.80;;;12.30;99.90;;;;;;4994189;28;20058;-62
2022/04/26 03:41:33;;;;;;;6.00;3.75;;;12.20;99.90;;;;;;4993757;28;20473;-60
2022/04/26 03:44:00;;;;;;;5.70;3.80;;;12.20;99.90;;;;;;4994173;28;20085;-58
2022/04/26 03:46:26;;;;;;;4.78;3.47;;;12.20;99.90;;;;;;4993928;28;20030;-57
2022/04/26 03:48:52;;;;;;;4.63;3.38;;;12.20;99.90;;;;;;4993752;28;20477;-61
2022/04/26 03:51:18;;;;;;;5.38;3.78;;;12.20;99.90;;;;;;4993805;28;20034;-63
2022/04/26 03:53:47;;;;;;;7.03;4.30;;;12.20;99.90;;;;;;4993454;28;20046;-56
2022/04/26 03:56:12;;;;;;;8.93;4.30;;;12.10;99.90;;;;;;4993673;28;20057;-58
2022/04/26 03:58:38;;;;;;;6.78;4.55;;;12.00;99.90;;;;;;4993746;28;20046;-61
2022/04/26 04:01:04;;;;;;;7.57;4.78;;;12.00;99.90;;;;;;4993583;28;20027;-61
2022/04/26 04:03:30;;;;;;;7.32;4.35;;;12.10;99.90;;;;;;4993627;28;20033;-65
2022/04/26 04:05:56;;;;;;;18.13;9.35;;;12.10;99.90;;;;;;4993641;28;20030;-61
2022/04/26 04:08:22;;;;;;;18.10;9.77;;;12.10;99.90;;;;;;4993915;28;20023;-58
2022/04/26 04:10:48;;;;;;;19.85;10.70;;;12.00;99.90;;;;;;4993497;28;20658;-59
2022/04/26 04:13:13;;;;;;;14.98;9.75;;;12.10;99.90;;;;;;4993453;28;20045;-60
2022/04/26 04:15:40;;;;;;;12.27;8.02;;;12.10;99.90;;;;;;4993515;28;20050;-56
2022/04/26 04:19:17;;;;;;;10.88;7.13;;;12.20;99.90;;;;;;4993579;28;20101;-61
2022/04/26 04:20:54;;;;;;;7.65;5.55;;;12.20;99.90;;;;;;4993392;28;20444;-63
2022/04/26 04:23:20;;;;;;;8.07;4.90;;;12.30;99.90;;;;;;4993583;28;20023;-59
2022/04/26 04:25:46;;;;;;;7.63;4.72;;;12.30;99.90;;;;;;4996312;28;20391;-61
2022/04/26 04:28:12;;;;;;;19.70;10.32;;;12.40;99.90;;;;;;4997163;28;20117;-57
2022/04/26 04:30:37;;;;;;;20.17;11.35;;;12.30;99.90;;;;;;4996948;28;20041;-58
2022/04/26 04:33:03;;;;;;;17.90;10.38;;;12.20;99.90;;;;;;4996966;28;20429;-61
2022/04/26 04:35:29;;;;;;;15.50;9.05;;;12.20;99.90;;;;;;4997115;28;20033;-64
2022/04/26 04:37:54;;;;;;;13.73;7.53;;;12.30;99.90;;;;;;4997279;28;20496;-63
2022/04/26 04:40:20;;;;;;;11.00;7.05;;;12.40;99.90;;;;;;4996885;28;20385;-62
2022/04/26 04:42:46;;;;;;;9.30;6.13;;;12.50;99.90;;;;;;4996907;28;20031;-62
2022/04/26 04:45:12;;;;;;;7.32;5.43;;;12.60;99.90;;;;;;4997000;28;20469;-56
2022/04/26 04:47:37;;;;;;;19.35;12.48;;;12.70;99.90;;;;;;4996960;28;20030;-65
2022/04/26 04:50:03;;;;;;;32.63;18.38;;;12.70;99.90;;;;;;4996993;28;20026;-59
2022/04/26 04:52:29;;;;;;;29.40;19.02;;;12.70;99.90;;;;;;4997118;28;20400;-62
2022/04/26 04:54:55;;;;;;;29.38;18.13;;;12.70;99.90;;;;;;4996547;28;20030;-65
2022/04/26 04:57:20;;;;;;;42.50;25.33;;;12.70;99.90;;;;;;4996459;28;20029;-61
2022/04/26 04:59:46;;;;;;;77.55;38.70;;;12.70;99.90;;;;;;4994695;28;20133;-58
2022/04/26 05:02:12;;;;;;;396.67;187.32;;;12.60;99.90;;;;;;4988583;28;20370;-56
2022/04/26 05:04:39;;;;;;;278.60;137.27;;;12.60;99.90;;;;;;4975773;28;20496;-62
2022/04/26 05:07:07;;;;;;;339.27;168.95;;;12.50;99.90;;;;;;4976940;28;20030;-59
2022/04/26 05:09:33;;;;;;;325.17;161.18;;;12.50;99.90;;;;;;4985663;28;20035;-63
2022/04/26 05:11:58;;;;;;;294.48;141.60;;;12.50;99.90;;;;;;4994218;28;20076;-62
2022/04/26 05:14:24;;;;;;;223.63;117.70;;;12.60;99.90;;;;;;4994030;28;20027;-61
2022/04/26 05:16:50;;;;;;;160.38;84.05;;;12.70;99.90;;;;;;4993417;28;20400;-60
2022/04/26 05:19:16;;;;;;;116.68;57.10;;;12.90;99.90;;;;;;4991864;28;20503;-60
2022/04/26 05:21:42;;;;;;;91.80;50.35;;;13.20;99.90;;;;;;4993585;28;20113;-56
2022/04/26 05:26:52;;;;;;;57.58;32.42;;;13.60;99.90;;;;;;4994938;28;20111;-60
2022/04/26 05:29:17;;;;;;;39.40;22.33;;;13.90;99.90;;;;;;4996005;28;20542;-59
2022/04/26 05:31:43;;;;;;;29.85;16.50;;;14.00;99.90;;;;;;4995973;28;20088;-62
2022/04/26 05:34:09;;;;;;;30.67;17.23;;;14.10;99.90;;;;;;4995837;28;20117;-64
2022/04/26 05:36:35;;;;;;;21.92;13.27;;;14.10;99.90;;;;;;4995077;28;20023;-63
2022/04/26 05:39:01;;;;;;;23.38;13.88;;;14.20;99.90;;;;;;4994366;28;20023;-63
2022/04/26 05:41:27;;;;;;;22.77;13.18;;;14.30;99.90;;;;;;4992537;28;20021;-62
2022/04/26 05:43:53;;;;;;;27.13;14.93;;;14.40;99.90;;;;;;4993219;28;20509;-64
2022/04/26 05:46:19;;;;;;;20.77;11.68;;;14.50;99.90;;;;;;4993540;28;20022;-65
2022/04/26 05:48:44;;;;;;;17.42;10.52;;;14.60;99.90;;;;;;4993659;28;20026;-61
2022/04/26 05:51:10;;;;;;;13.60;7.85;;;14.60;99.90;;;;;;4994102;28;20022;-63
2022/04/26 05:53:36;;;;;;;13.45;8.00;;;14.70;99.80;;;;;;4994318;28;20038;-63
2022/04/26 05:56:04;;;;;;;11.85;6.68;;;14.70;99.80;;;;;;4993422;28;20030;-65
2022/04/26 05:58:30;;;;;;;9.40;5.68;;;14.80;98.80;;;;;;4993496;28;20018;-62
2022/04/26 06:00:56;;;;;;;9.82;5.85;;;14.80;99.90;;;;;;4992183;28;20385;-65
2022/04/26 06:03:21;;;;;;;22.08;9.55;;;14.80;99.90;;;;;;4993328;28;20053;-64
2022/04/26 06:05:47;;;;;;;41.97;23.23;;;15.00;99.90;;;;;;4993013;28;20033;-62
2022/04/26 06:08:13;;;;;;;61.78;30.38;;;15.00;99.90;;;;;;4993295;28;20380;-62
2022/04/26 06:10:40;;;;;;;53.50;26.02;;;15.00;99.90;;;;;;4982155;28;20034;-65
2022/04/26 06:13:08;;;;;;;36.47;19.95;;;15.10;99.90;;;;;;4972157;28;20035;-64
2022/04/26 06:15:34;;;;;;;32.45;17.67;;;15.20;99.80;;;;;;4981290;28;20031;-67
2022/04/26 06:18:00;;;;;;;22.45;12.48;;;15.30;99.90;;;;;;4988927;28;20105;-65
2022/04/26 06:20:32;;;;;;;17.08;10.30;;;15.50;99.90;;;;;;4976862;28;20026;-62
2022/04/26 06:22:58;;;;;;;11.40;6.43;;;15.60;98.60;;;;;;4990626;28;20033;-68
2022/04/26 06:25:24;;;;;;;9.30;6.25;;;15.90;95.30;;;;;;4990907;28;20034;-67
2022/04/26 06:27:50;;;;;;;8.50;5.50;;;16.10;98.20;;;;;;4992229;28;20030;-64
2022/04/26 06:30:16;;;;;;;6.75;4.15;;;16.30;95.20;;;;;;4991778;28;20035;-71
2022/04/26 06:32:43;;;;;;;5.85;4.18;;;16.60;95.20;;;;;;4991413;28;20033;-68
2022/04/26 06:35:12;;;;;;;5.35;3.20;;;16.90;91.60;;;;;;4989869;28;20062;-69
2022/04/26 06:37:37;;;;;;;5.65;2.92;;;18.40;83.70;;;;;;4988663;28;20028;-71
2022/04/26 06:40:05;;;;;;;4.10;2.70;;;21.60;70.60;;;;;;4990519;28;20023;-70
2022/04/26 06:42:30;;;;;;;2.55;1.90;;;24.70;61.10;;;;;;4991081;28;20559;-69
2022/04/26 06:44:56;;;;;;;3.75;2.53;;;27.30;53.10;;;;;;4992390;28;20058;-71
2022/04/26 06:47:22;;;;;;;4.50;2.42;;;28.90;47.00;;;;;;4988687;28;20390;-71
2022/04/26 06:49:47;;;;;;;3.13;2.17;;;30.10;44.10;;;;;;4992493;28;20043;-66
2022/04/26 06:52:13;;;;;;;7.28;3.00;;;31.10;41.50;;;;;;4992384;28;20455;-64
2022/04/26 06:54:45;;;;;;;2.72;2.20;;;31.10;40.00;;;;;;4991908;28;20042;-66
2022/04/26 06:57:11;;;;;;;2.60;1.85;;;31.30;39.70;;;;;;4991215;28;20473;-65
2022/04/26 06:59:40;;;;;;;2.78;1.95;;;32.00;38.40;;;;;;4984607;28;20040;-63
2022/04/26 07:02:11;;;;;;;3.30;2.00;;;32.70;37.00;;;;;;4985859;28;20034;-62
2022/04/26 07:04:38;;;;;;;3.35;1.80;;;32.30;35.30;;;;;;4994330;28;20029;-65
2022/04/26 07:07:05;;;;;;;3.90;2.10;;;30.50;36.50;;;;;;4991539;28;20034;-64
2022/04/26 07:09:31;;;;;;;5.35;2.20;;;28.90;37.60;;;;;;4992460;28;20029;-63
2022/04/26 07:11:57;;;;;;;5.90;2.53;;;27.10;38.40;;;;;;4992801;28;20028;-63
2022/04/26 07:14:22;;;;;;;6.97;2.83;;;26.00;40.60;;;;;;4991929;28;20503;-61
2022/04/26 07:16:48;;;;;;;6.22;2.25;;;26.60;41.60;;;;;;4991379;28;20101;-62
2022/04/26 07:19:14;;;;;;;9.98;3.75;;;28.40;40.30;;;;;;4990759;28;20024;-62
2022/04/26 07:21:44;;;;;;;7.85;3.20;;;30.20;39.10;;;;;;4990583;28;20023;-66
2022/04/26 07:24:12;;;;;;;145.88;32.13;;;31.50;37.50;;;;;;4989649;28;20039;-63
2022/04/26 07:26:38;;;;;;;63.90;19.17;;;32.70;36.00;;;;;;4988011;28;20354;-63
2022/04/26 07:29:04;;;;;;;35.28;10.75;;;33.60;34.60;;;;;;4997157;28;20158;-63
2022/04/26 07:31:30;;;;;;;17.73;7.03;;;33.90;34.40;;;;;;5002565;28;20026;-64
2022/04/26 07:36:40;;;;;;;7.10;3.05;;;34.50;33.50;;;;;;4991078;28;20063;-65
2022/04/26 07:39:06;;;;;;;6.85;2.72;;;35.50;33.80;;;;;;4990855;28;20023;-64
2022/04/26 07:41:36;;;;;;;7.10;2.83;;;35.40;32.60;;;;;;4992112;28;20499;-64
2022/04/26 07:44:02;;;;;;;4.57;2.35;;;35.50;33.20;;;;;;4991900;28;20109;-63
2022/04/26 07:46:28;;;;;;;4.88;2.40;;;35.70;31.60;;;;;;4988785;28;20492;-59
2022/04/26 07:48:55;;;;;;;4.32;2.25;;;35.70;31.50;;;;;;4989946;28;20035;-62
2022/04/26 07:51:21;;;;;;;4.72;2.20;;;36.10;33.40;;;;;;4989050;28;20022;-61
2022/04/26 07:53:47;;;;;;;5.07;2.55;;;36.30;31.80;;;;;;4980138;28;20382;-62
2022/04/26 07:56:13;;;;;;;4.30;2.15;;;35.60;32.00;;;;;;4980481;28;20037;-63
2022/04/26 07:58:38;;;;;;;3.05;1.90;;;35.50;31.80;;;;;;4991661;28;20105;-64
2022/04/26 08:01:04;;;;;;;3.17;2.00;;;35.90;30.90;;;;;;4984838;28;20027;-61
2022/04/26 08:03:32;;;;;;;4.28;1.77;;;35.60;31.00;;;;;;4980514;28;20031;-61
2022/04/26 08:05:58;;;;;;;2.85;1.63;;;35.50;31.20;;;;;;4987906;28;20033;-63
2022/04/26 08:08:24;;;;;;;4.35;1.60;;;35.20;31.60;;;;;;4982579;28;20070;-65
2022/04/26 08:10:50;;;;;;;3.63;1.85;;;34.50;31.70;;;;;;4971690;28;20051;-62
2022/04/26 08:13:16;;;;;;;4.07;1.50;;;34.10;31.40;;;;;;4971423;28;20037;-62
2022/04/26 08:15:42;;;;;;;3.28;1.45;;;34.60;33.30;;;;;;4972051;28;20101;-61
2022/04/26 08:18:09;;;;;;;1.90;1.30;;;35.20;32.30;;;;;;4977992;28;20109;-62
2022/04/26 08:20:36;;;;;;;2.22;1.30;;;35.20;30.90;;;;;;4989773;28;20019;-61
2022/04/26 08:23:02;;;;;;;3.50;1.00;;;35.70;31.20;;;;;;4992624;28;20022;-63
2022/04/26 08:28:12;;;;;;;2.03;1.13;;;36.20;31.90;;;;;;4991039;28;20088;-64
2022/04/26 08:30:38;;;;;;;3.22;1.00;;;36.20;30.20;;;;;;4989911;28;20397;-64
2022/04/26 08:33:04;;;;;;;2.10;0.93;;;36.40;29.90;;;;;;4974311;28;20339;-61
2022/04/26 08:35:30;;;;;;;2.17;0.88;;;36.30;30.00;;;;;;4974101;28;20035;-64
2022/04/26 08:37:56;;;;;;;1.30;0.60;;;36.10;30.00;;;;;;4978499;28;20027;-69
2022/04/26 08:40:21;;;;;;;1.83;0.77;;;35.70;31.20;;;;;;4992996;28;20530;-64
2022/04/26 08:42:50;;;;;;;1.55;0.80;;;35.70;30.00;;;;;;4991958;28;20106;-63
2022/04/26 08:45:20;;;;;;;1.73;0.88;;;35.80;31.30;;;;;;4980463;28;20027;-63
2022/04/26 08:53:23;;;;;;;1.52;0.70;;;34.40;31.60;;;;;;4989792;28;20073;-64
2022/04/26 08:55:50;;;;;;;1.38;0.90;;;32.70;35.20;;;;;;4991310;28;20477;-65
2022/04/26 08:58:18;;;;;;;1.15;0.60;;;32.40;34.40;;;;;;4987611;28;20037;-67
2022/04/26 09:01:18;;;;;;;0.90;0.70;;;32.10;31.50;;;;;;4987851;28;20481;-62
2022/04/26 09:03:59;;;;;;;1.25;0.60;;;32.20;34.60;;;;;;4988995;28;20137;-64
2022/04/26 09:06:43;;;;;;;2.00;0.63;;;32.40;31.00;;;;;;4992121;28;20022;-64
2022/04/26 09:09:18;;;;;;;1.40;0.70;;;32.60;32.60;;;;;;4987358;28;20073;-65
2022/04/26 09:11:45;;;;;;;0.90;0.57;;;32.60;34.80;;;;;;4979418;28;20086;-62
2022/04/26 09:14:29;;;;;;;1.02;0.47;;;32.50;32.00;;;;;;4974369;28;20426;-61
2022/04/26 09:17:12;;;;;;;0.50;0.30;;;32.60;31.10;;;;;;4977444;28;20027;-66
2022/04/26 09:19:44;;;;;;;1.13;0.60;;;32.40;33.50;;;;;;4980634;28;20085;-67
2022/04/26 09:22:21;;;;;;;0.90;0.60;;;32.40;34.80;;;;;;4983133;28;20155;-61
2022/04/26 09:24:57;;;;;;;0.70;0.52;;;32.30;32.00;;;;;;4991659;28;20037;-65
2022/04/26 09:27:23;;;;;;;0.95;0.47;;;32.80;32.60;;;;;;4987641;28;20063;-64
2022/04/26 09:29:52;;;;;;;1.50;0.70;;;32.60;33.70;;;;;;4987716;28;20018;-65
2022/04/26 09:32:19;;;;;;;1.55;0.60;;;32.30;33.70;;;;;;5012184;28;20555;-65
2022/04/26 09:34:44;;;;;;;1.08;0.55;;;32.60;33.80;;;;;;4985878;28;20081;-62
2022/04/26 09:37:12;;;;;;;2.40;0.98;;;32.60;33.10;;;;;;4981282;28;20026;-64
2022/04/26 09:39:41;;;;;;;1.20;0.60;;;32.60;33.90;;;;;;4979632;28;20019;-61
2022/04/26 09:42:07;;;;;;;1.08;0.70;;;32.50;33.70;;;;;;4986873;28;20015;-60
2022/04/26 09:44:41;;;;;;;1.08;0.35;;;32.30;31.40;;;;;;4983565;28;20358;-63
2022/04/26 09:47:06;;;;;;;2.47;0.70;;;32.20;30.80;;;;;;4988502;28;20029;-63
2022/04/26 09:49:37;;;;;;;1.38;0.50;;;32.50;33.00;;;;;;4990786;28;20452;-64
2022/04/26 09:52:03;;;;;;;1.10;0.70;;;32.50;30.00;;;;;;4985066;28;20026;-63
2022/04/26 09:54:29;;;;;;;2.15;0.88;;;32.20;31.70;;;;;;4989839;28;20117;-63
2022/04/26 09:56:55;;;;;;;2.08;0.50;;;32.00;32.80;;;;;;4989604;28;20034;-63
2022/04/26 09:59:29;;;;;;;3.65;0.80;;;32.20;34.60;;;;;;4990014;28;20022;-63
2022/04/26 10:01:57;;;;;;;1.55;0.60;;;32.20;35.80;;;;;;4984078;28;20062;-61
2022/04/26 10:04:25;;;;;;;2.00;1.00;;;32.30;33.10;;;;;;4995216;28;20045;-67
2022/04/26 10:07:06;;;;;;;1.85;0.80;;;32.20;33.60;;;;;;4996399;28;20121;-63
2022/04/26 10:09:32;;;;;;;3.17;1.25;;;32.40;33.70;;;;;;4995127;28;20026;-60
2022/04/26 10:12:00;;;;;;;2.35;1.00;;;32.50;36.60;;;;;;4989857;28;20481;-68
2022/04/26 10:14:29;;;;;;;2.35;0.98;;;32.60;35.90;;;;;;4987631;28;20178;-63
2022/04/26 10:16:55;;;;;;;2.38;1.10;;;32.60;33.30;;;;;;4988874;28;20030;-64
2022/04/26 10:19:36;;;;;;;2.22;1.20;;;32.50;32.40;;;;;;4987516;28;20026;-63
2022/04/26 10:22:02;;;;;;;2.70;1.05;;;32.40;35.10;;;;;;4990838;28;20058;-61
2022/04/26 10:24:28;;;;;;;2.03;0.90;;;32.50;33.30;;;;;;4991648;28;20439;-68
2022/04/26 10:27:18;;;;;;;2.08;1.02;;;32.70;33.80;;;;;;4991915;28;20497;-63
2022/04/26 10:29:44;;;;;;;2.47;0.90;;;32.60;33.00;;;;;;4992943;28;20448;-60
2022/04/26 10:32:11;;;;;;;2.88;0.90;;;32.70;31.20;;;;;;4992852;28;20033;-63
2022/04/26 10:34:39;;;;;;;2.22;0.93;;;32.80;34.80;;;;;;4992195;28;20027;-66
2022/04/26 10:37:11;;;;;;;1.27;0.80;;;32.90;30.50;;;;;;4992630;28;20027;-66
2022/04/26 10:39:42;;;;;;;2.15;1.00;;;32.40;31.30;;;;;;4993616;28;20030;-63
2022/04/26 10:42:16;;;;;;;1.98;1.00;;;32.30;35.50;;;;;;4991573;28;20307;-62
2022/04/26 10:44:44;;;;;;;1.80;1.00;;;32.20;32.30;;;;;;4989683;28;20018;-65
2022/04/26 10:47:10;;;;;;;1.55;0.80;;;32.50;32.30;;;;;;4989519;28;20495;-62
2022/04/26 10:49:37;;;;;;;3.17;1.38;;;32.60;32.10;;;;;;4989409;28;20050;-65
2022/04/26 10:52:19;;;;;;;3.30;1.30;;;32.90;30.20;;;;;;4990286;28;20534;-69
2022/04/26 10:55:02;;;;;;;3.60;1.55;;;32.40;32.60;;;;;;4990751;28;20049;-67
2022/04/26 10:57:30;;;;;;;2.85;1.40;;;32.40;32.60;;;;;;4987220;28;20113;-63
2022/04/26 10:59:57;;;;;;;3.90;1.42;;;32.90;31.20;;;;;;4989572;28;20350;-63
2022/04/26 11:02:25;;;;;;;2.35;0.93;;;33.00;29.90;;;;;;4989559;28;20046;-64
2022/04/26 11:05:01;;;;;;;3.45;1.10;;;32.60;33.90;;;;;;4989695;28;20420;-62
2022/04/26 11:07:28;;;;;;;2.67;1.20;;;32.20;30.30;;;;;;4991750;28;20081;-65
2022/04/26 11:09:56;;;;;;;1.83;1.00;;;32.10;30.70;;;;;;4990860;28;20026;-63
2022/04/26 11:12:24;;;;;;;3.75;1.60;;;31.80;31.80;;;;;;4990638;28;20027;-60
2022/04/26 11:14:52;;;;;;;3.58;1.48;;;32.00;30.70;;;;;;4985474;28;20040;-65
2022/04/26 11:17:19;;;;;;;3.28;1.30;;;31.70;30.50;;;;;;4988522;28;20551;-62
2022/04/26 11:19:56;;;;;;;3.70;1.20;;;31.60;29.90;;;;;;4993498;28;20088;-67
2022/04/26 11:22:23;;;;;;;3.15;1.45;;;32.00;30.30;;;;;;4991095;28;20022;-61
2022/04/26 11:30:35;;;;;;;4.53;1.50;;;31.40;30.40;;;;;;4990959;28;20073;-62
2022/04/26 11:33:03;;;;;;;3.88;1.30;;;31.90;30.40;;;;;;4991033;28;20134;-63
2022/04/26 11:35:29;;;;;;;10.65;2.58;;;32.50;33.20;;;;;;4987946;28;20038;-65
2022/04/26 11:37:58;;;;;;;3.88;1.90;;;32.70;29.20;;;;;;4981042;28;20062;-63
2022/04/26 11:40:41;;;;;;;6.38;1.95;;;32.40;34.50;;;;;;4987182;28;20022;-64
2022/04/26 11:43:12;;;;;;;6.95;2.30;;;31.80;31.70;;;;;;4976860;28;20494;-64
2022/04/26 11:45:40;;;;;;;9.00;3.15;;;30.40;31.00;;;;;;4979605;28;20121;-65
2022/04/26 11:48:11;;;;;;;9.38;3.60;;;29.20;31.00;;;;;;4985133;28;20030;-68
2022/04/26 11:50:37;;;;;;;6.53;2.42;;;28.50;31.50;;;;;;4989901;28;20315;-69
2022/04/26 11:53:06;;;;;;;5.68;1.70;;;28.40;32.20;;;;;;5009366;28;20104;-71
2022/04/26 11:55:37;;;;;;;3.75;1.55;;;28.20;31.50;;;;;;5009910;28;20026;-68
2022/04/26 11:58:17;;;;;;;5.88;2.33;;;28.00;32.30;;;;;;4990987;28;20026;-70
2022/04/26 12:00:56;;;;;;;6.95;2.70;;;28.10;32.10;;;;;;4991279;28;20023;-70
2022/04/26 12:03:27;;;;;;;4.20;1.70;;;27.60;33.00;;;;;;4983485;28;20362;-72
2022/04/26 12:05:56;;;;;;;5.25;1.80;;;27.60;33.10;;;;;;4982228;28;20023;-68
2022/04/26 12:08:23;;;;;;;3.72;1.77;;;27.80;34.00;;;;;;4992448;28;20113;-64
2022/04/26 12:10:49;;;;;;;5.63;1.60;;;27.40;33.60;;;;;;4993024;28;20481;-69
2022/04/26 12:13:26;;;;;;;6.10;1.88;;;27.30;33.20;;;;;;4984760;28;20049;-68
2022/04/26 12:15:52;;;;;;;5.00;2.10;;;27.60;33.40;;;;;;4986872;28;20143;-72
2022/04/26 12:18:17;;;;;;;9.02;1.40;;;28.10;32.30;;;;;;4973992;28;20073;-65
2022/04/26 12:21:02;;;;;;;2.38;1.10;;;28.30;33.00;;;;;;4972619;28;20023;-67
2022/04/26 12:23:30;;;;;;;1.75;1.00;;;28.30;33.10;;;;;;4982464;28;20101;-66
2022/04/26 12:26:01;;;;;;;3.08;0.90;;;28.50;32.30;;;;;;4988287;28;20543;-66
2022/04/26 12:28:27;;;;;;;3.78;1.10;;;28.60;33.90;;;;;;4990271;28;20038;-62
2022/04/26 12:30:53;;;;;;;1.55;0.90;;;28.50;34.60;;;;;;4989361;28;20084;-69
2022/04/26 12:33:35;;;;;;;3.63;1.38;;;28.50;32.30;;;;;;4991907;28;20029;-69
2022/04/26 12:36:06;;;;;;;1.88;1.15;;;28.60;31.80;;;;;;4990050;28;20100;-68
2022/04/26 12:38:45;;;;;;;2.17;1.00;;;28.60;34.10;;;;;;4982677;28;20023;-71
2022/04/26 12:41:11;;;;;;;2.13;1.20;;;28.30;33.40;;;;;;4984388;28;20334;-69
2022/04/26 12:43:37;;;;;;;1.42;0.80;;;28.30;35.30;;;;;;4979636;28;20035;-67
2022/04/26 12:46:06;;;;;;;1.50;0.70;;;28.10;38.40;;;;;;4973502;28;20019;-72
2022/04/26 12:51:30;;;;;;;1.33;0.45;;;27.60;39.20;;;;;;4975604;28;20037;-72
2022/04/26 12:54:11;;;;;;;0.77;0.55;;;27.10;37.50;;;;;;4975205;28;20042;-66
2022/04/26 12:56:37;;;;;;;0.80;0.52;;;27.10;39.30;;;;;;4975764;28;20019;-65
2022/04/26 12:59:03;;;;;;;1.27;0.50;;;27.70;40.50;;;;;;4975314;28;20540;-62
2022/04/26 13:01:29;;;;;;;0.73;0.50;;;28.00;39.60;;;;;;4975818;28;20026;-68
2022/04/26 13:03:57;;;;;;;0.57;0.50;;;28.50;37.40;;;;;;4976113;28;20023;-70
2022/04/26 13:06:25;;;;;;;1.23;0.40;;;29.10;39.20;;;;;;4976569;28;20019;-63
2022/04/26 13:08:51;;;;;;;1.00;0.55;;;29.40;39.30;;;;;;4976993;28;20489;-69
2022/04/26 13:11:18;;;;;;;0.82;0.45;;;29.40;36.00;;;;;;4976926;28;20026;-64
2022/04/26 13:13:49;;;;;;;2.95;0.60;;;29.20;35.90;;;;;;4976793;28;20027;-69
2022/04/26 13:16:17;;;;;;;2.08;0.73;;;28.70;36.00;;;;;;4977071;28;20023;-71
2022/04/26 13:18:42;;;;;;;1.00;0.60;;;28.60;35.90;;;;;;4976901;28;20023;-68
2022/04/26 13:21:08;;;;;;;1.88;0.60;;;28.70;39.60;;;;;;4976862;28;20019;-67
2022/04/26 13:23:34;;;;;;;0.98;0.70;;;29.30;40.40;;;;;;4977038;28;20042;-64
2022/04/26 13:26:02;;;;;;;2.42;0.50;;;29.90;38.60;;;;;;4976655;28;20381;-66
2022/04/26 13:28:28;;;;;;;1.50;0.52;;;30.30;37.20;;;;;;4975330;28;20027;-69
2022/04/26 13:30:54;;;;;;;0.70;0.60;;;30.60;36.60;;;;;;4976612;28;20053;-67
2022/04/26 13:33:20;;;;;;;1.20;0.68;;;30.90;36.70;;;;;;4976583;28;20469;-67
2022/04/26 13:35:46;;;;;;;2.63;1.00;;;31.10;35.30;;;;;;4976633;28;20030;-66
2022/04/26 13:38:13;;;;;;;2.83;0.70;;;31.00;35.40;;;;;;4976793;28;20034;-65
2022/04/26 13:40:41;;;;;;;1.45;0.70;;;30.90;37.20;;;;;;4976328;28;20023;-64
2022/04/26 13:43:07;;;;;;;1.70;0.70;;;31.10;35.80;;;;;;4976576;28;20109;-68
2022/04/26 13:45:34;;;;;;;1.45;0.80;;;31.20;33.50;;;;;;4976362;28;20538;-63
2022/04/26 13:48:03;;;;;;;1.33;0.65;;;30.90;35.10;;;;;;4976565;28;20038;-69
2022/04/26 13:50:29;;;;;;;1.00;0.73;;;30.80;35.10;;;;;;4976331;28;20081;-69
2022/04/26 13:52:56;;;;;;;1.38;0.80;;;30.60;34.50;;;;;;4975946;28;20436;-67
2022/04/26 13:55:26;;;;;;;1.45;0.80;;;30.30;34.60;;;;;;4975978;28;20109;-69
2022/04/26 13:57:53;;;;;;;1.33;0.60;;;30.10;35.90;;;;;;4975668;28;20027;-70
2022/04/26 14:00:18;;;;;;;2.58;0.85;;;30.30;35.00;;;;;;4976085;28;20023;-64
2022/04/26 14:02:46;;;;;;;1.77;0.60;;;30.50;35.70;;;;;;4976109;28;20037;-67
2022/04/26 14:05:13;;;;;;;2.03;0.70;;;30.70;36.70;;;;;;4976048;28;20381;-66
2022/04/26 14:07:39;;;;;;;2.17;0.80;;;30.40;35.30;;;;;;4975906;28;20031;-66
2022/04/26 14:10:05;;;;;;;1.48;0.80;;;30.50;35.50;;;;;;4975864;28;20023;-64
2022/04/26 14:12:31;;;;;;;1.23;0.60;;;30.60;36.60;;;;;;4975878;28;20561;-68
2022/04/26 14:23:10;;;;;;;1.33;0.73;;;31.20;35.20;;;;;;4975753;28;20515;-69
2022/04/26 14:25:37;;;;;;;1.90;0.82;;;31.40;33.40;;;;;;4975602;28;20026;-69
2022/04/26 14:28:03;;;;;;;2.38;0.70;;;31.40;33.20;;;;;;4975777;28;20025;-69
2022/04/26 14:30:29;;;;;;;1.88;0.77;;;31.20;32.10;;;;;;4975488;28;20150;-63
2022/04/26 14:32:55;;;;;;;2.42;0.95;;;31.20;32.30;;;;;;4975373;28;20105;-67
2022/04/26 14:35:21;;;;;;;1.25;0.80;;;30.70;32.60;;;;;;4975581;28;20033;-69
2022/04/26 14:37:48;;;;;;;1.10;0.50;;;30.70;34.00;;;;;;4975410;28;20102;-66
2022/04/26 14:40:14;;;;;;;1.30;0.70;;;30.70;33.20;;;;;;4975195;28;20026;-65
2022/04/26 14:42:45;;;;;;;1.00;0.85;;;30.60;34.60;;;;;;4975419;28;20026;-71
2022/04/26 14:45:11;;;;;;;2.58;1.05;;;30.60;33.90;;;;;;4975618;28;20117;-70
2022/04/26 14:47:36;;;;;;;4.82;2.10;;;30.70;35.50;;;;;;4975194;28;20049;-66
2022/04/26 14:50:04;;;;;;;1.92;1.00;;;30.80;34.60;;;;;;4975164;28;20525;-67
2022/04/26 14:52:30;;;;;;;1.83;1.25;;;30.70;32.90;;;;;;4974901;28;20485;-66
2022/04/26 14:54:57;;;;;;;2.17;1.15;;;30.40;33.20;;;;;;4974988;28;20035;-70
2022/04/26 14:57:23;;;;;;;1.92;1.20;;;30.20;33.10;;;;;;4975159;28;20033;-66
2022/04/26 14:59:49;;;;;;;1.70;1.02;;;30.20;36.20;;;;;;4975096;28;20019;-69
2022/04/26 15:02:19;;;;;;;2.05;1.00;;;30.00;34.10;;;;;;4974937;28;20492;-69
2022/04/26 15:04:47;;;;;;;1.27;0.90;;;29.90;34.40;;;;;;4974961;28;20023;-69
2022/04/26 15:07:13;;;;;;;2.65;1.08;;;29.70;34.40;;;;;;4974837;28;20046;-67
2022/04/26 15:09:47;;;;;;;2.05;1.05;;;29.70;35.10;;;;;;4974077;28;20054;-66
2022/04/26 15:17:48;;;;;;;2.72;0.90;;;29.60;36.10;;;;;;4975063;28;20034;-70
2022/04/26 15:20:15;;;;;;;1.92;0.90;;;29.30;35.80;;;;;;4974650;28;20029;-66
2022/04/26 15:22:41;;;;;;;2.08;1.27;;;29.00;37.50;;;;;;4974655;28;20030;-68
2022/04/26 15:25:09;;;;;;;1.65;1.00;;;28.90;37.70;;;;;;4974802;28;20106;-66
2022/04/26 15:27:38;;;;;;;2.22;0.98;;;28.90;37.20;;;;;;4974546;28;20537;-68
2022/04/26 15:30:07;;;;;;;1.65;1.10;;;29.10;38.10;;;;;;4974761;28;20097;-65
2022/04/26 15:32:33;;;;;;;1.40;0.90;;;29.10;36.90;;;;;;4974452;28;20034;-66
2022/04/26 15:34:58;;;;;;;2.60;1.10;;;29.20;37.60;;;;;;4974289;28;20031;-66
2022/04/26 15:37:25;;;;;;;1.25;0.90;;;29.30;36.50;;;;;;4974684;28;20026;-68
2022/04/26 15:39:55;;;;;;;1.55;0.90;;;29.10;36.10;;;;;;4974682;28;20027;-66
2022/04/26 15:42:21;;;;;;;1.02;0.80;;;29.00;37.30;;;;;;4974446;28;20437;-69
2022/04/26 15:44:47;;;;;;;1.45;0.80;;;29.00;36.80;;;;;;4974575;28;20042;-66
2022/04/26 15:47:13;;;;;;;6.38;0.80;;;29.00;36.80;;;;;;4974691;28;20054;-72
2022/04/26 15:49:39;;;;;;;1.13;0.70;;;29.10;36.40;;;;;;4974236;28;20074;-66
2022/04/26 15:52:07;;;;;;;1.00;0.85;;;29.30;35.90;;;;;;4974363;28;20031;-68
2022/04/26 15:54:33;;;;;;;1.42;0.90;;;29.10;36.50;;;;;;4974236;28;20047;-65
2022/04/26 15:56:59;;;;;;;2.95;0.95;;;29.20;36.90;;;;;;4974634;28;20072;-69
2022/04/26 15:59:24;;;;;;;1.30;0.80;;;29.40;37.20;;;;;;4974422;28;20027;-65
2022/04/26 16:01:50;;;;;;;1.75;0.80;;;29.40;36.60;;;;;;4974479;28;20027;-67
2022/04/26 16:04:15;;;;;;;1.40;0.80;;;29.00;36.80;;;;;;4974263;28;20026;-68
2022/04/26 16:06:42;;;;;;;1.50;0.80;;;28.50;36.30;;;;;;4974110;28;20027;-66
2022/04/26 16:22:50;;;;;;;1.40;1.30;;;27.10;38.40;;;;;;4978298;28;20037;-69
2022/04/26 16:25:16;;;;;;;1.15;1.00;;;27.20;38.70;;;;;;4977799;28;20452;-63
2022/04/26 16:27:42;;;;;;;2.88;1.20;;;27.20;38.40;;;;;;4977669;28;20073;-65
2022/04/26 16:30:10;;;;;;;1.10;1.00;;;27.10;39.10;;;;;;4977909;28;20054;-71
2022/04/26 16:32:36;;;;;;;1.02;0.95;;;26.90;38.10;;;;;;4977671;28;20059;-66
2022/04/26 16:35:01;;;;;;;1.65;0.80;;;26.80;39.10;;;;;;4977458;28;20159;-67
2022/04/26 16:37:27;;;;;;;2.58;1.58;;;26.60;38.50;;;;;;4992680;28;20022;-65
2022/04/26 16:39:53;;;;;;;2.15;1.77;;;26.20;38.80;;;;;;4977918;28;20034;-64
2022/04/26 16:42:20;;;;;;;2.92;1.75;;;25.80;39.80;;;;;;4977455;28;20019;-66
2022/04/26 16:44:46;;;;;;;2.47;1.90;;;25.70;40.30;;;;;;4977660;28;20154;-67
2022/04/26 16:47:12;;;;;;;3.67;2.42;;;25.40;40.40;;;;;;4977802;28;20493;-65
2022/04/26 16:49:39;;;;;;;2.15;1.80;;;25.20;40.90;;;;;;4977189;28;20139;-62
2022/04/26 16:52:05;;;;;;;3.78;1.80;;;25.10;40.90;;;;;;4977405;28;20396;-68
2022/04/26 16:54:31;;;;;;;2.25;1.77;;;25.10;41.10;;;;;;4975881;28;20137;-70
2022/04/26 16:56:57;;;;;;;3.20;2.20;;;25.00;41.50;;;;;;4977286;28;20102;-65
2022/04/26 16:59:24;;;;;;;5.78;2.47;;;25.00;41.40;;;;;;4977560;28;20389;-71
2022/04/26 17:01:53;;;;;;;4.25;2.40;;;24.90;42.80;;;;;;4977259;28;20023;-66
2022/04/26 17:04:21;;;;;;;4.15;2.55;;;24.70;43.70;;;;;;4976998;28;20042;-71
2022/04/26 17:06:47;;;;;;;2.85;2.30;;;24.60;44.20;;;;;;4977180;28;20019;-66
2022/04/26 17:09:12;;;;;;;5.32;3.10;;;24.50;44.80;;;;;;4977207;28;20033;-66
2022/04/26 17:11:42;;;;;;;8.02;4.55;;;24.40;44.40;;;;;;4976948;28;20102;-66